Time;durP1;ratioP1;P1;durP2;ratioP2;P2;SDS_P1;SDS_P2;PMS_P1;PMS_P2;Temp;Humidity;BMP_temperature;BMP_pressure;BME280_temperature;BME280_humidity;BME280_pressure;Samples;Min_cycle;Max_cycle;Signal;HPM_P1;HPM_P2
2022/08/29 00:02:04;;;;;;;3.17;0.80;;;15.80;99.90;;;;;;5063028;28;20044;-34
2022/08/29 00:04:31;;;;;;;0.47;0.47;;;15.70;99.90;;;;;;5063585;28;20068;-38
2022/08/29 00:06:57;;;;;;;4.30;0.75;;;15.70;99.90;;;;;;5059976;28;20578;-38
2022/08/29 00:09:22;;;;;;;3.17;0.93;;;15.70;99.90;;;;;;5059470;28;20392;-39
2022/08/29 00:11:48;;;;;;;3.58;1.05;;;15.70;99.90;;;;;;5059699;28;20021;-38
2022/08/29 00:14:14;;;;;;;4.45;1.20;;;15.60;99.90;;;;;;5061294;28;20024;-38
2022/08/29 00:16:39;;;;;;;2.45;1.30;;;15.60;99.90;;;;;;5061182;28;20040;-37
2022/08/29 00:19:05;;;;;;;3.90;1.27;;;15.60;99.90;;;;;;5062505;28;20468;-39
2022/08/29 00:21:31;;;;;;;1.15;0.70;;;15.50;99.90;;;;;;5063796;28;20112;-75
2022/08/29 00:23:57;;;;;;;1.20;1.10;;;15.50;99.90;;;;;;5057293;28;20032;-44
2022/08/29 00:26:23;;;;;;;2.92;1.30;;;15.50;99.90;;;;;;5058434;28;20060;-37
2022/08/29 00:28:48;;;;;;;2.45;1.27;;;15.40;99.90;;;;;;5063022;28;20114;-41
2022/08/29 00:31:14;;;;;;;2.75;1.27;;;15.40;99.90;;;;;;5062481;28;20035;-38
2022/08/29 00:33:40;;;;;;;2.15;1.30;;;15.40;99.90;;;;;;5063837;28;20476;-42
2022/08/29 00:36:07;;;;;;;2.90;1.00;;;15.40;99.90;;;;;;5063751;28;20062;-39
2022/08/29 00:38:32;;;;;;;4.90;1.20;;;15.40;99.90;;;;;;5062891;28;20036;-37
2022/08/29 00:40:58;;;;;;;2.20;1.15;;;15.40;99.90;;;;;;5060256;28;20517;-37
2022/08/29 00:43:31;;;;;;;3.42;1.40;;;15.30;99.90;;;;;;5061553;28;20112;-34
2022/08/29 00:46:21;;;;;;;2.28;1.30;;;15.30;99.90;;;;;;5059514;28;20071;-32
2022/08/29 00:48:54;;;;;;;4.28;1.40;;;15.40;99.90;;;;;;5062973;28;20028;-34
2022/08/29 00:51:22;;;;;;;5.88;1.10;;;15.40;99.90;;;;;;5061812;28;20043;-41
2022/08/29 00:53:52;;;;;;;4.30;0.88;;;15.30;99.90;;;;;;5061067;28;20024;-31
2022/08/29 00:56:19;;;;;;;1.95;1.08;;;15.30;99.90;;;;;;5063820;28;20033;-38
2022/08/29 00:58:51;;;;;;;4.57;1.52;;;15.30;99.90;;;;;;5058852;28;20086;-35
2022/08/29 01:01:17;;;;;;;3.17;1.35;;;15.30;99.90;;;;;;5058370;28;20024;-33
2022/08/29 01:03:43;;;;;;;4.20;1.20;;;15.30;99.90;;;;;;5058526;28;20032;-32
2022/08/29 01:06:10;;;;;;;4.10;1.20;;;15.30;99.90;;;;;;5063493;28;20455;-38
2022/08/29 01:08:35;;;;;;;5.50;1.63;;;15.30;99.90;;;;;;5061458;28;20032;-33
2022/08/29 01:13:49;;;;;;;1.60;1.17;;;15.20;99.90;;;;;;5060142;28;20500;-36
2022/08/29 01:16:18;;;;;;;2.72;0.93;;;15.30;99.90;;;;;;5059146;28;20017;-37
2022/08/29 01:18:47;;;;;;;1.70;1.15;;;15.20;99.90;;;;;;5059345;28;20031;-36
2022/08/29 01:21:28;;;;;;;1.10;1.00;;;15.30;99.90;;;;;;5059728;28;20036;-38
2022/08/29 01:24:29;;;;;;;3.05;1.27;;;15.30;99.90;;;;;;5059592;28;20036;-38
2022/08/29 01:26:56;;;;;;;4.95;1.40;;;15.30;99.90;;;;;;5057895;28;20059;-38
2022/08/29 01:29:21;;;;;;;3.10;1.10;;;15.30;99.90;;;;;;5059310;28;20103;-44
2022/08/29 01:31:48;;;;;;;5.10;1.08;;;15.30;99.90;;;;;;5060684;28;20141;-36
2022/08/29 01:34:17;;;;;;;2.05;1.17;;;15.30;99.90;;;;;;5065469;28;20025;-38
2022/08/29 01:36:52;;;;;;;1.35;1.25;;;15.30;99.90;;;;;;5064115;28;20122;-39
2022/08/29 01:39:21;;;;;;;2.05;1.10;;;15.40;99.90;;;;;;5062096;28;20058;-39
2022/08/29 01:41:47;;;;;;;2.65;0.90;;;15.40;99.90;;;;;;5059725;28;20463;-36
2022/08/29 01:44:18;;;;;;;3.30;1.17;;;15.40;99.90;;;;;;5062796;28;20018;-37
2022/08/29 01:46:45;;;;;;;1.85;1.30;;;15.50;99.90;;;;;;5061729;28;20464;-38
2022/08/29 01:49:12;;;;;;;1.05;0.65;;;15.50;99.90;;;;;;5063560;28;20145;-39
2022/08/29 01:51:39;;;;;;;1.83;0.98;;;15.60;99.90;;;;;;5062949;28;20031;-41
2022/08/29 01:54:06;;;;;;;4.85;1.20;;;15.60;99.90;;;;;;5062242;28;20056;-34
2022/08/29 01:56:35;;;;;;;0.77;0.77;;;15.60;99.90;;;;;;5058765;28;20021;-39
2022/08/29 01:59:03;;;;;;;1.27;0.85;;;15.70;99.90;;;;;;5063725;28;20523;-36
2022/08/29 02:01:31;;;;;;;;;;;15.70;99.90;;;;;;5060214;28;20044;-39
2022/08/29 02:04:00;;;;;;;1.48;0.90;;;15.70;99.90;;;;;;5059166;28;20376;-45
2022/08/29 02:06:27;;;;;;;5.57;1.00;;;15.70;99.90;;;;;;5062544;28;20021;-39
2022/08/29 02:08:53;;;;;;;1.33;1.17;;;15.60;99.90;;;;;;5058571;28;20548;-40
2022/08/29 02:11:19;;;;;;;6.35;1.50;;;15.60;99.90;;;;;;5063659;28;20032;-37
2022/08/29 02:13:48;;;;;;;4.43;1.23;;;15.60;99.90;;;;;;5061975;28;20119;-38
2022/08/29 02:16:14;;;;;;;1.65;1.17;;;15.50;99.90;;;;;;5059783;28;20025;-42
2022/08/29 02:18:43;;;;;;;1.27;1.08;;;15.50;99.90;;;;;;5061441;28;20093;-38
2022/08/29 02:21:11;;;;;;;2.13;1.10;;;15.50;99.90;;;;;;5061085;28;20511;-39
2022/08/29 02:23:37;;;;;;;;;;;15.50;99.90;;;;;;5067099;28;20028;-39
2022/08/29 02:26:04;;;;;;;2.63;1.00;;;15.50;99.90;;;;;;5064808;28;19909;-39
2022/08/29 02:28:30;;;;;;;1.10;1.00;;;15.40;99.90;;;;;;5066173;28;20396;-39
2022/08/29 02:30:57;;;;;;;4.47;1.27;;;15.40;99.90;;;;;;5065204;28;20020;-37
2022/08/29 02:33:23;;;;;;;1.77;1.10;;;15.30;99.90;;;;;;5065213;28;20480;-34
2022/08/29 02:35:49;;;;;;;5.43;1.23;;;15.30;99.90;;;;;;5063249;28;20078;-38
2022/08/29 02:38:15;;;;;;;3.65;1.10;;;15.30;99.90;;;;;;5065731;28;20081;-35
2022/08/29 02:40:42;;;;;;;2.38;1.20;;;15.20;99.90;;;;;;5062708;28;20469;-36
2022/08/29 02:43:08;;;;;;;2.17;0.87;;;15.20;99.90;;;;;;5066103;28;20249;-39
2022/08/29 02:45:39;;;;;;;3.85;1.02;;;15.20;99.90;;;;;;5062380;28;20024;-38
2022/08/29 02:48:05;;;;;;;1.05;0.98;;;15.20;99.90;;;;;;5062683;28;20220;-39
2022/08/29 02:50:31;;;;;;;1.38;0.82;;;15.20;99.90;;;;;;5065342;28;20073;-39
2022/08/29 02:52:57;;;;;;;3.92;1.00;;;15.20;99.90;;;;;;5066094;28;20476;-39
2022/08/29 02:55:24;;;;;;;3.40;1.67;;;15.20;99.90;;;;;;5065545;28;20369;-39
2022/08/29 02:57:51;;;;;;;4.53;1.25;;;15.20;99.90;;;;;;5063231;28;20492;-35
2022/08/29 03:00:21;;;;;;;2.13;1.30;;;15.20;99.90;;;;;;5066209;28;20036;-37
2022/08/29 03:02:47;;;;;;;1.35;0.75;;;15.20;99.90;;;;;;5065225;28;20476;-43
2022/08/29 03:05:14;;;;;;;2.63;1.25;;;15.20;99.90;;;;;;5063276;28;20025;-40
2022/08/29 03:07:40;;;;;;;2.47;1.30;;;15.20;99.90;;;;;;5064728;28;20739;-43
2022/08/29 03:10:06;;;;;;;2.33;1.10;;;15.20;99.90;;;;;;5064055;28;20285;-38
2022/08/29 03:12:33;;;;;;;0.98;0.95;;;15.20;99.90;;;;;;5065215;28;20488;-42
2022/08/29 03:14:58;;;;;;;3.17;1.13;;;15.20;99.90;;;;;;5064972;28;20020;-37
2022/08/29 03:17:24;;;;;;;2.72;1.35;;;15.20;99.90;;;;;;5060223;28;20029;-38
2022/08/29 03:19:50;;;;;;;2.50;1.00;;;15.20;99.90;;;;;;5062964;28;20649;-33
2022/08/29 03:22:16;;;;;;;2.30;1.20;;;15.20;99.90;;;;;;5063603;28;20032;-34
2022/08/29 03:24:42;;;;;;;1.02;0.80;;;15.20;99.90;;;;;;5066297;28;20025;-35
2022/08/29 03:27:08;;;;;;;2.28;1.67;;;15.20;99.90;;;;;;5062420;28;20734;-34
2022/08/29 03:29:34;;;;;;;2.80;0.80;;;15.20;99.90;;;;;;5066903;28;20020;-36
2022/08/29 03:31:59;;;;;;;2.15;1.08;;;15.20;99.90;;;;;;5062705;28;20107;-51
2022/08/29 03:34:26;;;;;;;1.67;0.90;;;15.20;99.90;;;;;;5061134;28;20479;-35
2022/08/29 03:36:52;;;;;;;2.95;1.10;;;15.20;99.90;;;;;;5064835;28;20403;-35
2022/08/29 03:39:18;;;;;;;7.93;1.30;;;15.20;99.90;;;;;;5063407;28;20025;-35
2022/08/29 03:41:43;;;;;;;1.85;1.10;;;15.30;99.90;;;;;;5065500;28;20029;-40
2022/08/29 03:44:09;;;;;;;2.15;1.02;;;15.30;99.90;;;;;;5061915;28;20539;-40
2022/08/29 03:46:36;;;;;;;3.80;1.05;;;15.30;99.90;;;;;;5062769;28;20020;-41
2022/08/29 03:49:02;;;;;;;1.67;1.33;;;15.30;99.90;;;;;;5059085;28;20033;-41
2022/08/29 03:51:30;;;;;;;3.35;1.08;;;15.40;99.90;;;;;;5061173;28;20033;-38
2022/08/29 03:53:59;;;;;;;;;;;15.40;99.90;;;;;;5061999;28;20029;-36
2022/08/29 03:56:26;;;;;;;3.47;0.98;;;15.50;99.90;;;;;;5064720;28;21222;-39
2022/08/29 03:58:52;;;;;;;1.95;0.95;;;15.50;99.90;;;;;;5060772;28;20045;-34
2022/08/29 04:01:18;;;;;;;1.85;1.20;;;15.60;99.90;;;;;;5060730;28;20082;-35
2022/08/29 04:03:44;;;;;;;1.85;1.33;;;15.60;99.90;;;;;;5061943;28;20025;-47
2022/08/29 04:06:10;;;;;;;4.28;1.15;;;15.70;99.90;;;;;;5060257;28;20381;-38
2022/08/29 04:08:36;;;;;;;1.85;1.02;;;15.70;99.90;;;;;;5064561;28;20036;-38
2022/08/29 04:11:11;;;;;;;2.85;0.95;;;15.70;99.90;;;;;;5064685;28;20020;-38
2022/08/29 04:13:36;;;;;;;0.82;0.82;;;15.70;99.90;;;;;;5061244;28;20554;-38
2022/08/29 04:16:08;;;;;;;3.10;1.13;;;15.70;99.90;;;;;;5060354;28;20029;-40
2022/08/29 04:18:34;;;;;;;2.17;1.17;;;15.70;99.90;;;;;;5060750;28;20038;-45
2022/08/29 04:21:01;;;;;;;2.08;1.10;;;15.80;99.90;;;;;;5061126;28;20107;-38
2022/08/29 04:23:27;;;;;;;2.92;1.25;;;15.70;99.90;;;;;;5058368;28;20040;-37
2022/08/29 04:25:52;;;;;;;2.33;1.15;;;15.80;99.90;;;;;;5058266;28;20062;-37
2022/08/29 04:28:18;;;;;;;2.88;1.40;;;15.80;99.90;;;;;;5062793;28;20052;-37
2022/08/29 04:30:49;;;;;;;0.90;0.80;;;15.80;99.90;;;;;;5064001;28;20017;-30
2022/08/29 04:33:16;;;;;;;4.90;1.30;;;15.90;99.90;;;;;;5062023;28;20021;-38
2022/08/29 04:35:41;;;;;;;3.85;1.52;;;15.90;99.90;;;;;;5067060;28;20349;-39
2022/08/29 04:38:07;;;;;;;3.00;1.20;;;15.90;99.90;;;;;;5063026;28;20131;-36
2022/08/29 04:40:35;;;;;;;4.15;1.30;;;16.00;99.90;;;;;;5064924;28;20372;-38
2022/08/29 04:43:01;;;;;;;1.95;1.00;;;16.00;99.90;;;;;;5061647;28;20663;-37
2022/08/29 04:45:27;;;;;;;2.40;0.88;;;16.00;99.90;;;;;;5060703;28;20107;-38
2022/08/29 04:47:52;;;;;;;1.20;0.85;;;16.00;99.90;;;;;;5058783;28;20020;-38
2022/08/29 04:50:22;;;;;;;1.77;0.90;;;16.00;99.90;;;;;;5061376;28;20560;-38
2022/08/29 04:52:49;;;;;;;1.73;1.38;;;16.00;99.90;;;;;;5060891;28;20032;-40
2022/08/29 04:55:16;;;;;;;3.77;2.10;;;16.00;99.90;;;;;;5061473;28;20408;-34
2022/08/29 04:57:42;;;;;;;1.50;1.30;;;16.00;99.90;;;;;;5062139;28;20058;-34
2022/08/29 05:00:12;;;;;;;5.28;1.33;;;16.00;99.90;;;;;;5059782;28;20053;-33
2022/08/29 05:02:40;;;;;;;3.38;0.95;;;16.00;99.90;;;;;;5059472;28;20024;-35
2022/08/29 05:05:07;;;;;;;1.30;1.00;;;16.00;99.90;;;;;;5058049;28;20396;-34
2022/08/29 05:07:33;;;;;;;2.67;1.10;;;16.00;99.90;;;;;;5060339;28;20431;-36
2022/08/29 05:10:03;;;;;;;3.63;1.55;;;16.00;99.90;;;;;;5060725;28;20024;-41
2022/08/29 05:12:30;;;;;;;4.03;1.20;;;16.00;99.90;;;;;;5063213;28;20104;-37
2022/08/29 05:14:56;;;;;;;3.15;0.98;;;16.10;99.90;;;;;;5058967;28;20024;-40
2022/08/29 05:17:23;;;;;;;5.18;1.33;;;16.10;99.90;;;;;;5062871;28;20040;-39
2022/08/29 05:19:49;;;;;;;4.22;1.52;;;16.10;99.90;;;;;;5064221;28;20036;-34
2022/08/29 05:22:16;;;;;;;1.10;1.00;;;16.10;99.90;;;;;;5062959;28;20120;-33
2022/08/29 05:24:42;;;;;;;3.08;1.25;;;16.20;99.90;;;;;;5054957;28;20017;-31
2022/08/29 05:27:12;;;;;;;3.20;1.60;;;16.20;99.90;;;;;;5062451;28;20532;-37
2022/08/29 05:29:40;;;;;;;1.52;1.30;;;16.20;99.90;;;;;;5059721;28;20467;-40
2022/08/29 05:32:07;;;;;;;2.97;1.40;;;16.30;99.90;;;;;;5055899;28;20049;-30
2022/08/29 05:34:34;;;;;;;3.90;1.52;;;16.30;99.90;;;;;;5060907;28;20025;-31
2022/08/29 05:37:01;;;;;;;2.03;1.38;;;16.30;99.90;;;;;;5062119;28;20380;-34
2022/08/29 05:39:26;;;;;;;2.65;1.15;;;16.40;99.90;;;;;;5058924;28;20538;-35
2022/08/29 05:41:56;;;;;;;1.67;1.38;;;16.40;99.90;;;;;;5061433;28;20016;-34
2022/08/29 05:44:21;;;;;;;2.65;1.30;;;16.50;99.90;;;;;;5060129;28;20029;-41
2022/08/29 05:46:47;;;;;;;3.28;1.42;;;16.50;99.90;;;;;;5058665;28;20499;-31
2022/08/29 05:49:16;;;;;;;5.97;1.42;;;16.60;99.90;;;;;;5058932;28;20031;-38
2022/08/29 05:51:41;;;;;;;2.30;1.83;;;16.60;99.90;;;;;;5064679;28;20029;-39
2022/08/29 05:54:07;;;;;;;1.48;1.30;;;16.60;99.90;;;;;;5055135;28;20039;-37
2022/08/29 05:56:33;;;;;;;3.10;1.65;;;16.80;99.90;;;;;;5060276;28;20024;-40
2022/08/29 05:58:59;;;;;;;3.72;1.60;;;16.80;99.90;;;;;;5066958;28;20562;-40
2022/08/29 06:01:28;;;;;;;4.25;1.73;;;16.80;99.90;;;;;;5066790;28;20033;-38
2022/08/29 06:03:55;;;;;;;6.00;1.80;;;16.80;99.90;;;;;;5065712;28;20549;-40
2022/08/29 06:06:22;;;;;;;3.97;1.50;;;16.90;99.90;;;;;;5069189;28;20016;-41
2022/08/29 06:08:48;;;;;;;3.40;1.40;;;16.90;99.90;;;;;;5060939;28;20487;-39
2022/08/29 06:11:27;;;;;;;4.10;1.65;;;17.00;99.90;;;;;;5071503;28;20024;-41
2022/08/29 06:13:53;;;;;;;2.67;1.52;;;17.00;99.90;;;;;;5058790;28;20031;-41
2022/08/29 06:16:21;;;;;;;4.78;1.98;;;17.10;99.90;;;;;;5074356;28;20443;-39
2022/08/29 06:18:47;;;;;;;;;;;17.10;99.90;;;;;;5072658;28;20475;-42
2022/08/29 06:21:13;;;;;;;6.63;2.03;;;17.10;99.90;;;;;;5061210;28;20307;-40
2022/08/29 06:23:41;;;;;;;2.25;1.40;;;17.20;99.90;;;;;;5059514;28;20512;-37
2022/08/29 06:26:07;;;;;;;6.82;1.85;;;17.20;99.90;;;;;;5068871;28;20028;-38
2022/08/29 06:28:36;;;;;;;2.95;1.45;;;17.20;99.90;;;;;;5074218;28;20112;-39
2022/08/29 06:31:10;;;;;;;4.30;1.80;;;17.20;99.90;;;;;;5065174;28;20480;-38
2022/08/29 06:33:38;;;;;;;6.82;2.13;;;17.30;99.90;;;;;;5061892;28;20480;-40
2022/08/29 06:36:06;;;;;;;6.22;2.00;;;17.30;99.90;;;;;;5055020;28;20075;-38
2022/08/29 06:38:32;;;;;;;2.53;1.98;;;17.40;99.90;;;;;;5069067;28;20496;-38
2022/08/29 06:41:03;;;;;;;5.20;2.25;;;17.50;99.90;;;;;;5059411;28;20024;-40
2022/08/29 06:43:29;;;;;;;5.05;2.42;;;17.60;99.90;;;;;;5058467;28;20222;-42
2022/08/29 06:45:54;;;;;;;6.38;1.90;;;17.70;99.90;;;;;;5062650;28;20046;-40
2022/08/29 06:48:20;;;;;;;6.13;2.28;;;17.80;99.90;;;;;;5071310;28;20028;-37
2022/08/29 06:50:45;;;;;;;4.75;2.67;;;17.90;99.90;;;;;;5066732;28;20025;-39
2022/08/29 06:53:11;;;;;;;3.42;2.13;;;18.00;99.90;;;;;;5068849;28;20051;-42
2022/08/29 06:55:37;;;;;;;5.88;2.05;;;18.10;99.90;;;;;;5065501;28;20060;-39
2022/08/29 06:58:04;;;;;;;6.63;2.13;;;18.20;99.90;;;;;;5060831;28;20041;-37
2022/08/29 07:00:30;;;;;;;5.43;2.53;;;18.20;99.90;;;;;;5058446;28;20085;-38
2022/08/29 07:02:55;;;;;;;5.68;2.58;;;18.10;99.90;;;;;;5056515;28;20089;-40
2022/08/29 07:05:22;;;;;;;5.70;2.03;;;18.10;99.90;;;;;;5063356;28;20020;-37
2022/08/29 07:07:49;;;;;;;5.45;2.22;;;18.10;99.90;;;;;;5068311;28;20063;-37
2022/08/29 07:10:15;;;;;;;11.43;2.05;;;18.10;99.90;;;;;;5061355;28;20025;-38
2022/08/29 07:12:41;;;;;;;9.15;2.38;;;18.10;99.90;;;;;;5060692;28;20689;-40
2022/08/29 07:15:07;;;;;;;4.45;2.53;;;18.10;99.90;;;;;;5064283;28;20037;-39
2022/08/29 07:17:33;;;;;;;4.55;2.35;;;18.00;99.90;;;;;;5060348;28;20029;-40
2022/08/29 07:19:59;;;;;;;6.90;2.42;;;18.00;99.90;;;;;;5062664;28;20399;-38
2022/08/29 07:22:25;;;;;;;4.25;1.90;;;18.00;99.90;;;;;;5068686;28;20032;-39
2022/08/29 07:24:51;;;;;;;3.28;2.05;;;18.00;99.90;;;;;;5057655;28;20025;-36
2022/08/29 07:27:17;;;;;;;7.32;2.72;;;18.10;99.90;;;;;;5069764;28;20033;-40
2022/08/29 07:29:42;;;;;;;5.45;2.15;;;18.20;99.90;;;;;;5059887;28;20027;-39
2022/08/29 07:32:08;;;;;;;6.57;2.03;;;18.30;99.90;;;;;;5061711;28;20436;-39
2022/08/29 07:34:35;;;;;;;5.85;2.35;;;18.30;99.90;;;;;;5060639;28;20017;-40
2022/08/29 07:37:01;;;;;;;4.78;2.15;;;18.40;99.90;;;;;;5063017;28;20060;-41
2022/08/29 07:39:27;;;;;;;8.27;1.80;;;18.40;99.90;;;;;;5062779;28;20020;-38
2022/08/29 07:41:53;;;;;;;3.95;1.88;;;18.40;99.90;;;;;;5061847;28;20503;-38
2022/08/29 07:44:18;;;;;;;7.13;2.28;;;18.50;99.90;;;;;;5062281;28;20017;-38
2022/08/29 07:46:44;;;;;;;5.25;2.08;;;18.50;99.90;;;;;;5059053;28;20029;-38
2022/08/29 07:49:11;;;;;;;6.47;1.77;;;18.50;99.90;;;;;;5071906;28;20476;-39
2022/08/29 07:51:38;;;;;;;3.85;1.70;;;18.60;99.90;;;;;;5059447;28;20488;-37
2022/08/29 07:54:05;;;;;;;3.95;1.90;;;18.60;99.90;;;;;;5062574;28;20031;-38
2022/08/29 07:56:41;;;;;;;4.18;2.05;;;18.60;99.90;;;;;;5068437;28;20499;-37
2022/08/29 07:59:08;;;;;;;5.78;2.20;;;18.60;99.90;;;;;;5063704;28;20041;-38
2022/08/29 08:01:34;;;;;;;2.83;1.48;;;18.70;99.90;;;;;;5055968;28;20048;-38
2022/08/29 08:04:00;;;;;;;6.00;1.75;;;18.70;99.90;;;;;;5061927;28;20572;-39
2022/08/29 08:06:26;;;;;;;5.07;2.65;;;18.80;99.90;;;;;;5057765;28;20782;-37
2022/08/29 08:08:53;;;;;;;3.83;1.60;;;18.80;99.90;;;;;;5059963;28;20422;-42
2022/08/29 08:11:20;;;;;;;8.35;1.95;;;18.80;99.90;;;;;;5060663;28;20082;-41
2022/08/29 08:13:46;;;;;;;5.28;1.60;;;18.80;99.90;;;;;;5063476;28;20488;-43
2022/08/29 08:16:19;;;;;;;5.53;1.80;;;18.70;99.90;;;;;;5065822;28;20476;-38
2022/08/29 08:18:45;;;;;;;4.00;1.88;;;18.80;99.90;;;;;;5062047;28;20025;-37
2022/08/29 08:21:11;;;;;;;4.75;2.00;;;18.90;99.90;;;;;;5063386;28;20516;-39
2022/08/29 08:23:37;;;;;;;8.93;2.05;;;19.00;99.90;;;;;;5070927;28;20537;-40
2022/08/29 08:26:04;;;;;;;6.07;2.00;;;19.00;99.90;;;;;;5060387;28;20069;-39
2022/08/29 08:28:30;;;;;;;7.75;2.05;;;19.00;99.90;;;;;;5077366;28;20028;-40
2022/08/29 08:30:57;;;;;;;4.35;1.92;;;19.10;99.90;;;;;;5066277;28;20043;-38
2022/08/29 08:33:23;;;;;;;4.22;1.48;;;19.10;99.90;;;;;;5065652;28;20061;-39
2022/08/29 08:35:49;;;;;;;2.97;2.28;;;19.10;99.90;;;;;;5054846;28;20485;-39
2022/08/29 08:38:16;;;;;;;3.25;1.60;;;19.10;99.90;;;;;;5055266;28;20021;-38
2022/08/29 08:40:46;;;;;;;6.88;1.67;;;19.20;99.90;;;;;;5052090;28;20040;-37
2022/08/29 08:43:22;;;;;;;2.70;1.35;;;19.30;99.90;;;;;;5054607;28;20052;-38
2022/08/29 08:45:48;;;;;;;5.00;1.60;;;19.30;99.90;;;;;;5063068;28;20029;-37
2022/08/29 08:48:19;;;;;;;3.95;1.48;;;19.30;99.90;;;;;;5063247;28;20024;-39
2022/08/29 08:50:52;;;;;;;2.97;1.50;;;19.30;99.90;;;;;;5062449;28;20448;-34
2022/08/29 08:53:34;;;;;;;5.07;1.95;;;19.30;99.90;;;;;;5053986;28;20039;-32
2022/08/29 08:56:10;;;;;;;5.03;2.72;;;19.30;99.90;;;;;;5067257;28;20039;-36
2022/08/29 08:58:46;;;;;;;4.32;1.58;;;19.40;99.90;;;;;;5053653;28;20041;-34
2022/08/29 09:01:30;;;;;;;5.97;1.70;;;19.40;99.90;;;;;;5053166;28;20438;-34
2022/08/29 09:04:36;;;;;;;2.10;1.63;;;19.50;99.90;;;;;;5055249;28;20098;-33
2022/08/29 09:07:11;;;;;;;3.78;1.85;;;19.70;99.90;;;;;;5059808;28;20021;-35
2022/08/29 09:09:49;;;;;;;6.15;1.65;;;19.80;99.90;;;;;;5051778;28;20054;-34
2022/08/29 09:12:37;;;;;;;4.45;1.85;;;19.80;99.90;;;;;;5055319;28;20091;-34
2022/08/29 09:15:08;;;;;;;;;;;19.80;99.90;;;;;;5051739;28;20044;-34
2022/08/29 09:17:47;;;;;;;6.15;1.75;;;20.00;99.90;;;;;;5050918;28;19908;-36
2022/08/29 09:20:21;;;;;;;5.80;1.67;;;20.10;99.90;;;;;;5062120;28;20393;-33
2022/08/29 09:23:10;;;;;;;5.38;1.60;;;20.10;99.90;;;;;;5052902;28;20028;-36
2022/08/29 09:25:36;;;;;;;6.70;1.88;;;20.10;99.90;;;;;;5054783;28;20048;-35
2022/08/29 09:28:05;;;;;;;4.60;1.50;;;20.00;99.90;;;;;;5056411;28;20056;-33
2022/08/29 09:30:35;;;;;;;4.00;1.90;;;20.00;99.90;;;;;;5063480;28;20613;-33
2022/08/29 09:33:11;;;;;;;3.90;1.50;;;20.00;99.90;;;;;;5064550;28;20535;-38
2022/08/29 09:35:40;;;;;;;4.93;1.70;;;20.00;99.90;;;;;;5067154;28;20506;-36
2022/08/29 09:38:17;;;;;;;4.25;1.70;;;20.00;99.90;;;;;;5064727;28;20065;-34
2022/08/29 09:41:28;;;;;;;2.92;1.25;;;20.10;99.90;;;;;;5056511;28;20073;-31
2022/08/29 09:43:56;;;;;;;9.57;1.88;;;20.20;99.90;;;;;;5053038;28;20551;-33
2022/08/29 09:46:23;;;;;;;4.30;1.83;;;20.40;99.90;;;;;;5056090;28;20051;-32
2022/08/29 09:48:58;;;;;;;;;;;20.40;99.90;;;;;;5055398;28;20033;-34
2022/08/29 09:51:45;;;;;;;3.80;1.80;;;20.40;99.90;;;;;;5068178;28;20353;-32
2022/08/29 09:54:27;;;;;;;;;;;20.40;99.90;;;;;;5056152;28;20635;-34
2022/08/29 09:56:59;;;;;;;3.22;1.60;;;20.30;99.90;;;;;;5059215;28;19915;-33
2022/08/29 09:59:28;;;;;;;5.88;1.90;;;20.10;99.90;;;;;;5054037;28;20045;-37
2022/08/29 10:02:13;;;;;;;2.75;1.40;;;20.30;99.90;;;;;;5054628;28;20036;-31
2022/08/29 10:04:41;;;;;;;3.95;1.67;;;20.40;99.90;;;;;;5056272;28;20032;-33
2022/08/29 10:07:22;;;;;;;1.75;1.52;;;20.70;99.90;;;;;;5054668;28;20033;-35
2022/08/29 10:09:59;;;;;;;3.97;2.60;;;21.20;99.90;;;;;;5054885;28;20500;-31
2022/08/29 10:13:00;;;;;;;2.15;1.55;;;21.40;99.90;;;;;;5056583;28;20028;-35
2022/08/29 10:15:53;;;;;;;5.20;1.90;;;21.40;99.90;;;;;;5035389;28;20029;-37
2022/08/29 10:18:45;;;;;;;6.43;1.70;;;21.30;99.90;;;;;;5042859;28;20532;-37
2022/08/29 10:21:17;;;;;;;3.58;1.75;;;21.10;99.90;;;;;;5047856;28;20037;-35
2022/08/29 10:24:17;;;;;;;4.40;1.88;;;21.00;99.90;;;;;;5053747;28;20082;-31
2022/08/29 10:27:01;;;;;;;5.45;2.00;;;20.80;99.90;;;;;;5059268;28;20494;-31
2022/08/29 10:29:55;;;;;;;5.28;2.05;;;20.70;99.90;;;;;;5053961;28;20436;-34
2022/08/29 10:32:26;;;;;;;9.68;2.00;;;20.70;99.90;;;;;;5063550;28;20476;-33
2022/08/29 10:35:02;;;;;;;8.20;2.25;;;20.70;99.90;;;;;;5072968;28;20044;-31
2022/08/29 10:37:54;;;;;;;8.43;2.60;;;20.60;99.90;;;;;;5064133;28;20060;-33
2022/08/29 10:40:38;;;;;;;7.07;1.75;;;20.60;99.90;;;;;;5058358;28;20041;-33
2022/08/29 10:43:33;;;;;;;5.13;1.67;;;20.50;99.90;;;;;;5060726;28;20032;-33
2022/08/29 10:46:23;;;;;;;5.93;2.00;;;20.50;99.90;;;;;;5052956;28;20021;-32
2022/08/29 10:49:25;;;;;;;3.47;2.10;;;20.50;99.90;;;;;;5063042;28;20032;-30
2022/08/29 10:52:18;;;;;;;7.05;2.03;;;20.90;99.90;;;;;;5057438;28;20372;-38
2022/08/29 10:55:01;;;;;;;3.00;1.50;;;21.50;99.90;;;;;;5053639;28;20025;-31
2022/08/29 10:58:00;;;;;;;2.15;1.27;;;21.90;99.90;;;;;;5054967;28;20029;-37
2022/08/29 11:00:47;;;;;;;3.78;1.67;;;22.30;99.90;;;;;;5063785;28;20044;-35
2022/08/29 11:03:23;;;;;;;7.22;1.65;;;22.30;99.90;;;;;;5058255;28;20499;-32
2022/08/29 11:05:58;;;;;;;6.22;1.48;;;22.10;99.90;;;;;;5057239;28;20028;-32
2022/08/29 11:08:33;;;;;;;2.85;1.42;;;21.90;99.90;;;;;;5053111;28;20477;-32
2022/08/29 11:10:59;;;;;;;2.70;1.67;;;21.70;99.90;;;;;;5060144;28;20017;-31
2022/08/29 11:13:35;;;;;;;7.18;1.67;;;21.40;99.90;;;;;;5056622;28;20373;-34
2022/08/29 11:16:25;;;;;;;4.32;2.20;;;21.10;99.90;;;;;;5053839;28;20519;-34
2022/08/29 11:19:04;;;;;;;2.75;1.58;;;20.80;99.90;;;;;;5053493;28;20032;-34
2022/08/29 11:21:47;;;;;;;3.20;1.80;;;20.60;99.90;;;;;;5058741;28;20035;-33
2022/08/29 11:24:15;;;;;;;3.88;2.03;;;20.40;99.90;;;;;;5053411;28;20060;-34
2022/08/29 11:26:43;;;;;;;7.78;2.60;;;20.40;99.90;;;;;;5062718;28;20020;-31
2022/08/29 11:29:40;;;;;;;4.97;1.83;;;20.40;99.90;;;;;;5057904;28;20023;-31
2022/08/29 11:32:15;;;;;;;3.92;2.38;;;20.60;99.90;;;;;;5059482;28;20546;-33
2022/08/29 11:35:05;;;;;;;7.30;1.60;;;20.70;99.90;;;;;;5067217;28;20024;-32
2022/08/29 11:37:36;;;;;;;6.97;1.67;;;20.90;99.90;;;;;;5061686;28;20025;-36
2022/08/29 11:40:08;;;;;;;4.93;1.85;;;21.00;99.90;;;;;;5064070;28;20027;-34
2022/08/29 11:42:39;;;;;;;7.57;1.70;;;21.10;99.90;;;;;;5059646;28;20150;-32
2022/08/29 11:45:09;;;;;;;4.85;1.75;;;21.30;99.90;;;;;;5063075;28;20494;-33
2022/08/29 11:47:34;;;;;;;8.57;2.60;;;21.40;99.90;;;;;;5060058;28;20484;-31
2022/08/29 11:50:02;;;;;;;4.82;1.55;;;21.20;99.90;;;;;;5061497;28;20012;-33
2022/08/29 11:52:29;;;;;;;3.95;1.52;;;21.30;99.90;;;;;;5061696;28;20041;-31
2022/08/29 11:55:22;;;;;;;2.05;1.85;;;21.70;99.90;;;;;;5072371;28;20107;-36
2022/08/29 11:57:57;;;;;;;4.38;1.20;;;22.10;99.90;;;;;;5061290;28;20032;-31
2022/08/29 12:01:00;;;;;;;5.53;2.13;;;22.30;99.90;;;;;;5056873;28;20524;-31
2022/08/29 12:03:32;;;;;;;7.13;1.95;;;22.50;99.90;;;;;;5044076;28;20513;-38
2022/08/29 12:06:00;;;;;;;8.43;1.60;;;22.60;99.90;;;;;;5071029;28;20484;-42
2022/08/29 12:08:40;;;;;;;3.65;1.48;;;22.40;99.90;;;;;;5065038;28;20545;-38
2022/08/29 12:11:24;;;;;;;5.72;1.90;;;22.10;99.90;;;;;;5063501;28;20021;-33
2022/08/29 12:13:57;;;;;;;2.17;1.55;;;22.00;99.90;;;;;;5057367;28;20035;-31
2022/08/29 12:16:25;;;;;;;3.70;1.90;;;22.00;99.90;;;;;;5064077;28;20382;-39
2022/08/29 12:18:53;;;;;;;4.10;1.45;;;22.20;99.90;;;;;;5058612;28;20072;-38
2022/08/29 12:21:43;;;;;;;3.45;1.63;;;22.30;99.90;;;;;;5056353;28;20061;-39
2022/08/29 12:24:38;;;;;;;6.10;2.70;;;22.20;99.90;;;;;;5070182;28;20118;-41
2022/08/29 12:27:04;;;;;;;7.20;1.67;;;22.20;99.90;;;;;;5054767;28;20409;-37
2022/08/29 12:29:33;;;;;;;3.53;1.30;;;22.30;99.90;;;;;;5058971;28;20025;-39
2022/08/29 12:32:11;;;;;;;3.83;1.58;;;22.50;99.40;;;;;;5060571;28;20024;-39
2022/08/29 12:34:51;;;;;;;5.85;1.80;;;22.50;99.30;;;;;;5066036;28;20504;-38
2022/08/29 12:37:59;;;;;;;3.38;1.42;;;22.60;99.70;;;;;;5064151;28;20029;-41
2022/08/29 12:40:31;;;;;;;11.93;2.78;;;22.70;99.40;;;;;;5062372;28;20037;-39
2022/08/29 12:43:45;;;;;;;1.45;1.30;;;22.80;99.50;;;;;;5058538;28;20032;-52
2022/08/29 12:46:41;;;;;;;2.05;1.15;;;22.60;99.50;;;;;;5027567;28;20556;-37
2022/08/29 12:49:25;;;;;;;1.30;1.20;;;22.50;99.80;;;;;;5035933;28;20162;-34
2022/08/29 12:52:20;;;;;;;2.53;1.40;;;22.40;99.90;;;;;;5055070;28;20044;-35
2022/08/29 12:54:46;;;;;;;5.40;1.90;;;22.30;99.90;;;;;;5063400;28;20040;-35
2022/08/29 12:57:22;;;;;;;4.20;1.27;;;22.60;99.90;;;;;;5063391;28;20541;-39
2022/08/29 12:59:50;;;;;;;10.93;2.33;;;22.70;99.90;;;;;;5052494;28;20516;-38
2022/08/29 13:02:31;;;;;;;3.50;1.48;;;22.60;99.90;;;;;;5056036;28;20036;-34
2022/08/29 13:04:58;;;;;;;5.00;1.75;;;22.40;99.70;;;;;;5049803;28;20027;-38
2022/08/29 13:07:26;;;;;;;2.50;1.75;;;22.20;99.90;;;;;;5055333;28;20469;-31
2022/08/29 13:09:57;;;;;;;2.95;1.38;;;22.00;99.90;;;;;;5056729;28;20021;-34
2022/08/29 13:12:31;;;;;;;5.57;1.85;;;21.80;99.90;;;;;;5051084;28;20472;-38